ADDS METAR Data INFO
IDs: Format: Raw Decoded Include TAF

Data at: 2308 UTC 16 Jan 2018

KBXK 162255Z AUTO 07006KT 10SM CLR 21/M02 A3010 RMK AO1
KBXK 162235Z AUTO 08007KT 10SM CLR 21/M02 A3009 RMK AO1
KBXK 162215Z AUTO 09007KT 10SM CLR 20/00 A3009 RMK AO1
KBXK 162155Z AUTO 10008KT 10SM CLR 20/00 A3009 RMK AO1
KBXK 162135Z AUTO 11010KT 10SM CLR 20/M01 A3010 RMK AO1
KBXK 162115Z AUTO 11009KT 10SM CLR 20/00 A3011 RMK AO1
KBXK 162055Z AUTO 10011KT 10SM CLR 20/00 A3010 RMK AO1
KBXK 162035Z AUTO 10009KT 10SM CLR 21/M01 A3011 RMK AO1
KBXK 162015Z AUTO 10011KT 10SM CLR 20/00 A3011 RMK AO1
KBXK 161955Z AUTO 11013G17KT 10SM CLR 20/00 A3013 RMK AO1
KBXK 161935Z AUTO 10012G18KT 10SM CLR 20/00 A3014 RMK AO1
KBXK 161915Z AUTO 10011KT 10SM CLR 20/00 A3015 RMK AO1
KBXK 161855Z AUTO 11012KT 10SM CLR 20/00 A3016 RMK AO1
KBXK 161835Z AUTO 11012KT 10SM CLR 19/00 A3017 RMK AO1
KBXK 161815Z AUTO 12007KT 10SM CLR 18/05 A3018 RMK AO1
KBXK 161755Z AUTO 14004KT 10SM CLR 15/06 A3019 RMK AO1
KBXK 161735Z AUTO 16003KT 10SM CLR 14/06 A3019 RMK AO1
KBXK 161715Z AUTO 00000KT 10SM CLR 13/06 A3018 RMK AO1
KBXK 161655Z AUTO 12004KT 10SM CLR 13/05 A3017 RMK AO1
KBXK 161635Z AUTO 13004KT 10SM CLR 14/04 A3016 RMK AO1
KBXK 161615Z AUTO 00000KT 10SM CLR 13/03 A3016 RMK AO1
KBXK 161555Z AUTO 03004KT 10SM CLR 11/03 A3016 RMK AO1
KBXK 161535Z AUTO 35004KT 10SM CLR 10/04 A3016 RMK AO1
KBXK 161515Z AUTO 32005KT 9SM FEW120 08/04 A3015 RMK AO1
KBXK 161455Z AUTO 34004KT 10SM BKN120 08/04 A3014 RMK AO1
KBXK 161435Z AUTO 02004KT 10SM OVC120 08/04 A3013 RMK AO1
KBXK 161415Z AUTO 03006KT 10SM OVC120 08/05 A3012 RMK AO1
KBXK 161355Z AUTO 02006KT 10SM BKN120 08/05 A3012 RMK AO1
KBXK 161335Z AUTO 35005KT 10SM BKN120 08/05 A3012 RMK AO1
KBXK 161315Z AUTO 34006KT 10SM OVC120 08/04 A3011 RMK AO1
KBXK 161255Z AUTO 00000KT 10SM OVC120 08/05 A3011 RMK AO1
KBXK 161235Z AUTO 29005KT 10SM OVC120 08/05 A3011 RMK AO1
KBXK 161215Z AUTO 00000KT 10SM OVC120 10/04 A3010 RMK AO1
KBXK 161155Z AUTO 06004KT 10SM OVC120 10/04 A3009 RMK AO1
KBXK 161135Z AUTO 00000KT 10SM OVC120 10/04 A3010 RMK AO1
KBXK 161115Z AUTO 01005KT 10SM OVC120 10/04 A3008 RMK AO1
KBXK 161055Z AUTO 00000KT 10SM OVC120 10/05 A3008 RMK AO1
KBXK 161035Z AUTO 00000KT 10SM OVC120 09/05 A3009 RMK AO1
KBXK 161015Z AUTO 00000KT 10SM OVC120 10/04 A3008 RMK AO1
KBXK 160955Z AUTO 00000KT 10SM OVC120 10/04 A3008 RMK AO1
KBXK 160935Z AUTO 00000KT 10SM OVC120 12/03 A3008 RMK AO1
KBXK 160915Z AUTO 00000KT 10SM OVC120 12/03 A3008 RMK AO1
KBXK 160855Z AUTO 05003KT 10SM OVC120 10/03 A3009 RMK AO1
KBXK 160835Z AUTO 09003KT 10SM OVC120 12/03 A3009 RMK AO1
KBXK 160815Z AUTO 00000KT 10SM BKN120 11/03 A3009 RMK AO1
KBXK 160755Z AUTO 05003KT 10SM OVC120 13/02 A3008 RMK AO1
KBXK 160735Z AUTO 04006KT 10SM BKN120 12/03 A3008 RMK AO1
KBXK 160715Z AUTO 04004KT 10SM BKN120 12/03 A3008 RMK AO1
KBXK 160655Z AUTO 05005KT 10SM OVC120 11/03 A3008 RMK AO1
KBXK 160635Z AUTO 03006KT 10SM OVC120 10/03 A3009 RMK AO1
KBXK 160615Z AUTO 01006KT 10SM BKN120 10/03 A3009 RMK AO1
KBXK 160555Z AUTO 35006KT 10SM BKN120 10/04 A3009 RMK AO1
KBXK 160535Z AUTO 36006KT 10SM SCT120 10/04 A3009 RMK AO1
KBXK 160515Z AUTO 01006KT 10SM CLR 10/04 A3009 RMK AO1
KBXK 160455Z AUTO 35005KT 9SM CLR 10/05 A3009 RMK AO1
KBXK 160435Z AUTO 34004KT 10SM CLR 12/04 A3009 RMK AO1
KBXK 160415Z AUTO 31004KT 10SM CLR 12/03 A3008 RMK AO1
KBXK 160355Z AUTO 34004KT 10SM CLR 12/03 A3008 RMK AO1
KBXK 160335Z AUTO 01004KT 10SM CLR 13/03 A3007 RMK AO1
KBXK 160315Z AUTO 36003KT 10SM CLR 13/03 A3006 RMK AO1
KBXK 160255Z AUTO 03003KT 10SM CLR 13/03 A3006 RMK AO1
KBXK 160235Z AUTO 02003KT 10SM CLR 14/03 A3006 RMK AO1
KBXK 160215Z AUTO 02004KT 10SM CLR 14/03 A3005 RMK AO1
KBXK 160155Z AUTO 00000KT 10SM CLR 14/04 A3005 RMK AO1
KBXK 160135Z AUTO 00000KT 10SM CLR 17/04 A3004 RMK AO1
KBXK 160115Z AUTO 00000KT 10SM CLR 17/04 A3004 RMK AO1
KBXK 160055Z AUTO 21003KT 8SM CLR 18/04 A3004 RMK AO1
KBXK 160035Z AUTO 20003KT 10SM CLR 19/03 A3003 RMK AO1
KBXK 160015Z AUTO 00000KT 10SM CLR 20/03 A3003 RMK AO1
KBXK 152355Z AUTO 00000KT 10SM CLR 21/02 A3003 RMK AO1
KBXK 152335Z AUTO 00000KT 10SM CLR 21/02 A3004 RMK AO1
KBXK 152315Z AUTO 21003KT 10SM CLR 21/02 A3004 RMK AO1
KBXK 152255Z AUTO 20003KT 10SM CLR 20/03 A3003 RMK AO1
KBXK 152235Z AUTO 21004KT 10SM CLR 20/02 A3003 RMK AO1
KBXK 152215Z AUTO 18004KT 10SM CLR 20/02 A3004 RMK AO1
KBXK 152155Z AUTO 19003KT 10SM CLR 20/03 A3004 RMK AO1
KBXK 152135Z AUTO 17003KT 10SM CLR 20/03 A3004 RMK AO1
KBXK 152115Z AUTO 21003KT 10SM CLR 20/04 A3005 RMK AO1
KBXK 152055Z AUTO 14005KT 10SM CLR 20/03 A3005 RMK AO1
KBXK 152035Z AUTO 00000KT 10SM CLR 19/03 A3006 RMK AO1
KBXK 152015Z AUTO 12003KT 10SM CLR 19/03 A3007 RMK AO1
KBXK 151955Z AUTO 00000KT 10SM CLR 18/03 A3008 RMK AO1
KBXK 151935Z AUTO 00000KT 10SM CLR 18/03 A3009 RMK AO1
KBXK 151915Z AUTO 00000KT 10SM CLR 17/04 A3010 RMK AO1
KBXK 151855Z AUTO 00000KT 10SM CLR 16/04 A3011 RMK AO1
KBXK 151835Z AUTO 00000KT 10SM CLR 15/04 A3012 RMK AO1
KBXK 151815Z AUTO 15003KT 10SM CLR 15/04 A3013 RMK AO1
KBXK 151755Z AUTO 00000KT 10SM CLR 14/04 A3014 RMK AO1
KBXK 151735Z AUTO 16003KT 10SM CLR 13/04 A3014 RMK AO1
KBXK 151715Z AUTO 00000KT 10SM CLR 13/03 A3014 RMK AO1
KBXK 151655Z AUTO 00000KT 10SM CLR 12/05 A3014 RMK AO1
KBXK 151635Z AUTO 00000KT 10SM CLR 12/03 A3014 RMK AO1
KBXK 151615Z AUTO 02003KT 10SM CLR 09/04 A3013 RMK AO1
KBXK 151555Z AUTO 00000KT 5SM CLR 08/05 A3012 RMK AO1
KBXK 151535Z AUTO 33003KT 10SM CLR 08/05 A3012 RMK AO1
KBXK 151515Z AUTO 30004KT 10SM CLR 07/05 A3012 RMK AO1
KBXK 151455Z AUTO 28005KT 10SM CLR 07/05 A3011 RMK AO1
KBXK 151435Z AUTO 00000KT 10SM SCT120 08/05 A3010 RMK AO1
KBXK 151415Z AUTO 17004KT 10SM OVC120 08/05 A3010 RMK AO1
KBXK 151355Z AUTO 14003KT 10SM OVC120 08/04 A3009 RMK AO1
KBXK 151335Z AUTO 13003KT 10SM OVC120 07/05 A3010 RMK AO1
KBXK 151315Z AUTO 09006KT 10SM OVC120 08/03 A3009 RMK AO1
KBXK 151255Z AUTO 03005KT 10SM OVC120 08/02 A3009 RMK AO1
KBXK 151235Z AUTO 01006KT 10SM OVC120 09/02 A3009 RMK AO1
KBXK 151215Z AUTO 36008KT 10SM SCT120 08/02 A3009 RMK AO1
KBXK 151155Z AUTO 35008KT 10SM CLR 07/02 A3010 RMK AO1
KBXK 151135Z AUTO 35006KT 10SM CLR 08/02 A3010 RMK AO1
KBXK 151115Z AUTO 35007KT 10SM CLR 08/02 A3010 RMK AO1